Time;durP1;ratioP1;P1;durP2;ratioP2;P2;SDS_P1;SDS_P2;PMS_P1;PMS_P2;Temp;Humidity;BMP_temperature;BMP_pressure;BME280_temperature;BME280_humidity;BME280_pressure;Samples;Min_cycle;Max_cycle;Signal;HPM_P1;HPM_P2
2023/01/05 00:00:53;;;;;;;7.32;1.67;;;18.00;72.70;;;;;;5032213;28;45358;-69
2023/01/05 00:03:20;;;;;;;6.70;1.60;;;18.00;72.60;;;;;;5032011;28;45437;-69
2023/01/05 00:05:46;;;;;;;8.68;2.00;;;18.00;72.60;;;;;;5035644;28;45418;-69
2023/01/05 00:08:13;;;;;;;5.55;1.50;;;18.00;72.50;;;;;;5036425;28;45142;-69
2023/01/05 00:24:26;;;;;;;8.25;1.95;;;18.00;72.50;;;;;;5005197;28;45232;-69
2023/01/05 00:26:54;;;;;;;4.10;1.48;;;18.00;72.60;;;;;;5007880;28;46553;-69
2023/01/05 00:29:20;;;;;;;7.90;1.42;;;18.00;72.70;;;;;;5014758;28;45768;-69
2023/01/05 00:31:47;;;;;;;7.68;1.65;;;18.00;72.70;;;;;;5024529;28;45344;-69
2023/01/05 00:34:14;;;;;;;7.03;1.80;;;18.00;72.50;;;;;;5026687;28;45470;-68
2023/01/05 00:36:41;;;;;;;6.35;1.73;;;18.00;72.60;;;;;;5033322;28;47134;-68
2023/01/05 00:39:08;;;;;;;7.13;1.73;;;18.00;72.50;;;;;;5035889;28;45428;-69
2023/01/05 00:41:35;;;;;;;3.35;1.42;;;18.00;72.50;;;;;;5031734;28;45433;-68
2023/01/05 00:44:03;;;;;;;4.07;1.27;;;18.00;72.60;;;;;;5032804;28;45486;-68
2023/01/05 00:46:30;;;;;;;4.57;1.52;;;18.10;72.60;;;;;;5033041;28;45294;-68
2023/01/05 00:48:56;;;;;;;8.40;1.63;;;18.10;72.60;;;;;;5034623;28;45306;-68
2023/01/05 00:51:23;;;;;;;4.50;1.60;;;18.10;72.60;;;;;;5027671;28;45342;-69
2023/01/05 00:53:50;;;;;;;4.82;1.40;;;18.10;72.60;;;;;;5021671;28;45353;-68
2023/01/05 00:56:17;;;;;;;7.13;1.70;;;18.00;72.40;;;;;;5024914;28;46583;-68
2023/01/05 00:58:44;;;;;;;7.07;1.65;;;18.00;72.30;;;;;;5025140;28;45258;-68
2023/01/05 01:01:12;;;;;;;6.95;1.77;;;18.00;72.30;;;;;;5025659;28;45300;-68
2023/01/05 01:03:39;;;;;;;8.00;1.83;;;18.00;72.20;;;;;;5024852;28;45421;-69
2023/01/05 01:06:06;;;;;;;10.10;1.70;;;18.00;72.20;;;;;;5024986;28;46319;-68
2023/01/05 01:08:33;;;;;;;7.70;2.13;;;18.00;72.20;;;;;;5024785;28;45670;-69
2023/01/05 01:11:04;;;;;;;9.57;1.77;;;18.00;72.20;;;;;;5025462;28;45219;-68
2023/01/05 01:13:31;;;;;;;6.75;1.73;;;18.00;72.10;;;;;;5025126;28;45432;-68
2023/01/05 01:15:58;;;;;;;6.80;1.77;;;18.00;72.10;;;;;;5024646;28;46421;-68
2023/01/05 01:18:26;;;;;;;5.85;1.45;;;18.00;72.10;;;;;;5024857;28;45341;-68
2023/01/05 01:20:53;;;;;;;4.82;1.45;;;18.00;72.00;;;;;;5024341;28;45363;-68
2023/01/05 01:23:19;;;;;;;4.60;1.55;;;18.00;72.10;;;;;;5024305;28;45303;-68
2023/01/05 01:25:46;;;;;;;6.60;1.33;;;18.00;72.10;;;;;;5021763;28;45353;-68
2023/01/05 01:28:13;;;;;;;4.35;1.30;;;18.00;72.20;;;;;;5024344;28;45398;-68
2023/01/05 01:30:40;;;;;;;4.03;1.50;;;18.00;72.20;;;;;;5015419;28;45367;-68
2023/01/05 01:33:06;;;;;;;7.25;1.48;;;18.00;72.20;;;;;;5023889;28;45254;-68
2023/01/05 01:35:37;;;;;;;7.28;1.90;;;18.00;72.20;;;;;;5023444;28;47498;-69
2023/01/05 01:38:04;;;;;;;5.10;1.60;;;18.10;72.30;;;;;;5024501;28;45737;-68
2023/01/05 01:40:31;;;;;;;8.10;1.45;;;18.00;72.30;;;;;;5024722;28;45308;-68
2023/01/05 01:42:57;;;;;;;3.55;1.42;;;18.00;72.20;;;;;;5023606;28;45449;-69
2023/01/05 01:45:25;;;;;;;4.80;1.40;;;18.10;72.20;;;;;;5024623;28;47003;-69
2023/01/05 01:47:56;;;;;;;4.95;1.60;;;18.10;72.20;;;;;;5024505;28;45316;-68
2023/01/05 01:50:28;;;;;;;8.48;1.60;;;18.10;72.30;;;;;;5024269;28;45441;-68
2023/01/05 01:53:01;;;;;;;5.88;1.25;;;18.10;72.20;;;;;;5024264;28;45267;-68
2023/01/05 01:55:35;;;;;;;5.75;1.20;;;18.10;72.30;;;;;;5024257;28;45450;-69
2023/01/05 01:58:06;;;;;;;5.25;1.77;;;18.10;72.20;;;;;;5024485;28;45445;-68
2023/01/05 02:00:33;;;;;;;7.50;1.75;;;18.10;72.10;;;;;;5024422;28;45368;-68
2023/01/05 02:03:00;;;;;;;3.88;1.38;;;18.00;72.00;;;;;;5023739;28;45425;-68
2023/01/05 02:05:29;;;;;;;6.43;1.40;;;18.00;72.00;;;;;;5024333;28;47535;-68
2023/01/05 02:07:58;;;;;;;6.72;1.73;;;18.00;71.90;;;;;;5023771;28;45352;-69
2023/01/05 02:10:39;;;;;;;5.07;1.42;;;18.00;72.10;;;;;;5023986;28;45406;-68
2023/01/05 02:13:21;;;;;;;4.63;1.48;;;18.00;72.00;;;;;;5023384;28;45492;-69
2023/01/05 02:15:55;;;;;;;4.60;1.88;;;18.00;71.90;;;;;;5023732;28;48220;-68
2023/01/05 02:18:38;;;;;;;6.72;1.67;;;18.00;71.90;;;;;;5024024;28;45345;-69
2023/01/05 02:21:21;;;;;;;4.63;1.50;;;18.00;71.90;;;;;;5023282;28;45379;-68
2023/01/05 02:24:25;;;;;;;5.93;1.33;;;18.00;71.90;;;;;;5003474;28;45545;-68
2023/01/05 02:27:35;;;;;;;4.95;1.08;;;18.00;71.90;;;;;;5004009;28;46307;-68
2023/01/05 02:30:39;;;;;;;6.70;1.80;;;18.00;71.90;;;;;;5003885;28;45275;-68
2023/01/05 02:33:15;;;;;;;4.93;1.20;;;18.00;73.00;;;;;;5003733;28;45314;-69
2023/01/05 02:35:51;;;;;;;6.00;1.50;;;18.00;72.00;;;;;;5002729;28;45402;-68
2023/01/05 02:38:23;;;;;;;4.80;1.38;;;18.00;72.10;;;;;;5001383;28;46070;-68
2023/01/05 02:40:55;;;;;;;4.47;1.50;;;18.00;72.00;;;;;;5003043;28;45903;-69
2023/01/05 02:43:22;;;;;;;7.63;1.70;;;18.00;72.10;;;;;;5001540;28;45302;-69
2023/01/05 02:45:50;;;;;;;4.55;1.30;;;18.10;72.10;;;;;;5016406;28;45519;-68
2023/01/05 02:48:17;;;;;;;3.65;1.58;;;18.10;72.10;;;;;;5023075;28;47392;-68
2023/01/05 02:50:50;;;;;;;5.93;1.58;;;18.10;72.10;;;;;;5023136;28;45464;-68
2023/01/05 02:53:22;;;;;;;5.82;1.63;;;18.00;72.00;;;;;;5022535;28;45435;-68
2023/01/05 02:55:52;;;;;;;4.68;1.48;;;18.00;72.00;;;;;;5023429;28;45331;-69
2023/01/05 02:58:23;;;;;;;5.00;1.55;;;18.10;72.00;;;;;;5020978;28;45571;-68
2023/01/05 03:00:55;;;;;;;8.35;1.92;;;18.10;71.90;;;;;;5022202;28;45329;-68
2023/01/05 03:03:27;;;;;;;6.07;1.73;;;18.00;71.80;;;;;;5020349;28;45607;-69
2023/01/05 03:05:57;;;;;;;6.00;1.42;;;18.00;71.80;;;;;;5022140;28;45410;-69
2023/01/05 03:08:25;;;;;;;4.63;1.38;;;18.00;71.70;;;;;;5018340;28;45318;-69
2023/01/05 03:13:47;;;;;;;6.00;1.80;;;18.00;71.60;;;;;;5017137;28;45356;-68
2023/01/05 03:16:20;;;;;;;4.30;1.27;;;18.00;71.60;;;;;;5022873;28;45391;-69
2023/01/05 03:35:30;;;;;;;5.90;1.65;;;18.00;71.80;;;;;;5022531;28;45378;-68
2023/01/05 03:38:02;;;;;;;6.40;1.67;;;18.00;71.70;;;;;;5015672;28;45237;-69
2023/01/05 03:40:32;;;;;;;7.28;2.13;;;18.00;71.50;;;;;;5011875;28;45287;-68
2023/01/05 03:43:00;;;;;;;7.28;1.95;;;18.00;71.40;;;;;;5022124;28;45319;-69
2023/01/05 03:45:32;;;;;;;7.75;1.85;;;18.00;71.20;;;;;;5003592;28;45419;-68
2023/01/05 03:48:00;;;;;;;5.78;1.67;;;18.00;71.20;;;;;;5018545;28;45410;-68
2023/01/05 03:50:27;;;;;;;7.63;1.70;;;18.00;71.20;;;;;;5021070;28;48836;-68
2023/01/05 03:52:54;;;;;;;7.00;1.60;;;18.00;71.20;;;;;;5021537;28;45316;-69
2023/01/05 03:55:21;;;;;;;7.35;1.73;;;18.00;71.10;;;;;;5021803;28;45385;-68
2023/01/05 03:57:47;;;;;;;7.80;1.52;;;18.00;71.20;;;;;;5021819;28;45474;-69
2023/01/05 04:00:15;;;;;;;6.45;1.80;;;18.00;71.20;;;;;;5021940;28;45475;-69
2023/01/05 04:02:42;;;;;;;8.98;1.58;;;18.00;71.20;;;;;;5020765;28;45463;-69
2023/01/05 04:05:10;;;;;;;5.68;1.67;;;18.00;71.30;;;;;;5022075;28;45300;-68
2023/01/05 04:07:37;;;;;;;7.70;1.70;;;18.10;71.40;;;;;;5021730;28;45503;-69
2023/01/05 04:10:05;;;;;;;7.88;1.95;;;18.00;71.40;;;;;;5022035;28;45333;-68
2023/01/05 04:12:32;;;;;;;9.93;1.98;;;18.00;71.40;;;;;;5022014;28;45897;-69
2023/01/05 04:14:58;;;;;;;5.72;1.55;;;18.00;71.40;;;;;;5021949;28;45288;-68
2023/01/05 04:17:25;;;;;;;4.65;1.75;;;18.00;71.50;;;;;;5025209;28;45580;-69
2023/01/05 04:19:52;;;;;;;6.88;1.70;;;18.00;71.60;;;;;;5025050;28;46230;-69
2023/01/05 04:22:20;;;;;;;6.03;1.65;;;18.00;71.60;;;;;;5024837;28;45370;-69
2023/01/05 04:24:47;;;;;;;10.07;2.00;;;18.00;71.70;;;;;;5024658;28;45523;-69
2023/01/05 04:27:13;;;;;;;8.27;1.63;;;18.00;71.70;;;;;;5025554;28;45449;-68
2023/01/05 04:29:40;;;;;;;6.75;1.73;;;18.00;71.70;;;;;;5025822;28;48197;-68
2023/01/05 04:32:07;;;;;;;6.72;1.80;;;18.00;71.80;;;;;;5025534;28;45479;-69
2023/01/05 04:34:34;;;;;;;5.72;1.52;;;18.00;71.80;;;;;;5025288;28;45358;-69
2023/01/05 04:37:01;;;;;;;4.72;1.30;;;18.00;71.80;;;;;;5022158;28;45408;-68
2023/01/05 04:39:29;;;;;;;7.50;1.88;;;18.00;71.70;;;;;;5021617;28;47231;-69
2023/01/05 04:41:56;;;;;;;6.82;1.67;;;18.00;71.70;;;;;;5015171;28;45293;-69
2023/01/05 04:44:22;;;;;;;9.73;2.28;;;18.00;71.60;;;;;;5024564;28;45393;-69
2023/01/05 04:46:49;;;;;;;6.95;1.85;;;18.00;71.50;;;;;;5025459;28;45347;-68
2023/01/05 04:49:16;;;;;;;5.82;1.58;;;18.00;71.40;;;;;;5024823;28;46457;-68
2023/01/05 04:51:43;;;;;;;6.72;1.40;;;18.00;71.40;;;;;;5025085;28;45305;-68
2023/01/05 04:54:09;;;;;;;6.28;1.55;;;18.00;71.20;;;;;;5024802;28;45306;-68
2023/01/05 04:56:38;;;;;;;5.03;1.58;;;18.00;71.20;;;;;;5025074;28;45249;-68
2023/01/05 04:59:04;;;;;;;7.35;1.83;;;18.00;71.10;;;;;;5024619;28;46093;-68
2023/01/05 05:01:32;;;;;;;7.47;1.65;;;18.00;71.00;;;;;;5024486;28;45338;-68
2023/01/05 05:03:59;;;;;;;8.95;1.60;;;18.00;71.00;;;;;;5024293;28;45235;-69
2023/01/05 05:06:26;;;;;;;6.57;1.88;;;18.00;70.90;;;;;;5023936;28;45394;-68
2023/01/05 05:08:52;;;;;;;6.03;1.30;;;18.00;71.00;;;;;;5023980;28;45376;-68
2023/01/05 05:11:19;;;;;;;6.97;1.80;;;18.00;71.00;;;;;;5022708;28;45587;-68
2023/01/05 05:13:47;;;;;;;5.80;1.35;;;18.00;71.10;;;;;;5023494;28;45553;-69
2023/01/05 05:16:14;;;;;;;3.92;1.60;;;18.00;71.20;;;;;;5023396;28;45427;-69
2023/01/05 05:18:41;;;;;;;6.70;1.45;;;18.00;71.40;;;;;;5023846;28;46739;-69
2023/01/05 05:21:08;;;;;;;4.90;1.60;;;18.00;71.50;;;;;;5023946;28;45532;-68
2023/01/05 05:23:35;;;;;;;7.57;1.80;;;18.00;71.50;;;;;;5022259;28;45295;-69
2023/01/05 05:26:01;;;;;;;7.88;2.08;;;18.00;71.50;;;;;;5023749;28;45414;-69
2023/01/05 05:28:28;;;;;;;8.15;1.80;;;18.00;71.60;;;;;;5023412;28;47546;-69
2023/01/05 05:30:57;;;;;;;3.72;1.15;;;18.00;71.70;;;;;;5023456;28;45251;-69
2023/01/05 05:33:24;;;;;;;8.05;1.95;;;17.90;71.60;;;;;;5023542;28;45512;-68
2023/01/05 05:35:51;;;;;;;3.63;1.48;;;18.00;71.70;;;;;;5022685;28;45282;-68
2023/01/05 05:38:18;;;;;;;4.28;1.25;;;18.00;71.70;;;;;;5024478;28;45507;-68
2023/01/05 05:40:45;;;;;;;3.88;1.63;;;18.00;71.80;;;;;;5023944;28;45441;-68
2023/01/05 05:43:11;;;;;;;5.68;1.70;;;18.00;71.80;;;;;;5021987;28;45240;-68
2023/01/05 05:45:38;;;;;;;7.00;1.98;;;18.00;71.90;;;;;;5004548;28;45557;-68
2023/01/05 05:48:06;;;;;;;8.85;1.60;;;18.00;71.90;;;;;;5004374;28;46304;-69
2023/01/05 05:50:33;;;;;;;5.65;2.13;;;18.00;72.00;;;;;;5004732;28;45313;-68
2023/01/05 05:53:00;;;;;;;5.70;1.90;;;18.00;71.90;;;;;;5004699;28;45279;-68
2023/01/05 05:55:27;;;;;;;6.07;1.55;;;18.00;72.00;;;;;;5016338;28;45270;-69
2023/01/05 05:57:54;;;;;;;6.43;1.85;;;18.00;72.00;;;;;;5023577;28;48076;-68
2023/01/05 06:00:20;;;;;;;4.05;1.52;;;18.00;72.10;;;;;;5024984;28;45372;-69
2023/01/05 06:02:47;;;;;;;5.97;1.83;;;18.00;72.10;;;;;;5024029;28;45366;-68
2023/01/05 06:05:15;;;;;;;5.97;1.35;;;18.00;72.00;;;;;;5024523;28;45272;-69
2023/01/05 06:07:42;;;;;;;5.57;1.60;;;18.00;72.00;;;;;;5023958;28;46651;-68
2023/01/05 06:10:10;;;;;;;8.38;1.70;;;18.00;72.10;;;;;;5023996;28;45305;-68
2023/01/05 06:12:37;;;;;;;4.65;1.25;;;18.00;72.10;;;;;;5024088;28;45370;-68
2023/01/05 06:15:04;;;;;;;6.97;2.28;;;18.00;72.20;;;;;;5023716;28;45445;-68
2023/01/05 06:17:31;;;;;;;5.75;1.67;;;18.00;72.10;;;;;;5023890;28;46600;-68
2023/01/05 06:19:58;;;;;;;5.18;1.80;;;18.00;72.20;;;;;;5024409;28;45317;-68
2023/01/05 06:22:26;;;;;;;5.07;1.33;;;18.00;72.20;;;;;;5024458;28;45342;-68
2023/01/05 06:24:53;;;;;;;5.97;1.63;;;18.00;72.10;;;;;;5023399;28;45259;-68
2023/01/05 06:27:20;;;;;;;6.45;1.70;;;18.00;72.20;;;;;;5023921;28;45490;-68
2023/01/05 06:29:47;;;;;;;5.53;1.75;;;18.00;72.20;;;;;;5024004;28;45355;-69
2023/01/05 06:32:14;;;;;;;5.30;1.38;;;18.00;72.30;;;;;;5023203;28;45273;-68
2023/01/05 06:34:40;;;;;;;4.28;1.33;;;18.00;72.20;;;;;;5023644;28;45328;-69
2023/01/05 06:37:07;;;;;;;3.35;1.13;;;17.90;72.20;;;;;;5021212;28;47950;-69
2023/01/05 06:39:35;;;;;;;5.82;1.60;;;18.00;72.20;;;;;;5016686;28;45481;-68
2023/01/05 06:42:02;;;;;;;4.20;1.30;;;18.00;72.30;;;;;;5019809;28;45470;-68
2023/01/05 06:44:29;;;;;;;5.65;1.50;;;18.00;72.30;;;;;;5014603;28;45453;-69
2023/01/05 06:46:56;;;;;;;5.53;1.73;;;18.00;72.40;;;;;;5022529;28;47054;-68
2023/01/05 06:49:22;;;;;;;5.22;1.50;;;18.00;72.30;;;;;;5020677;28;45344;-70
2023/01/05 06:51:49;;;;;;;4.78;1.58;;;18.00;72.40;;;;;;5022002;28;45355;-68
2023/01/05 06:54:16;;;;;;;4.72;1.40;;;18.00;72.40;;;;;;5017091;28;45354;-69
2023/01/05 06:56:44;;;;;;;2.65;1.10;;;18.00;72.30;;;;;;5022111;28;45311;-69
2023/01/05 06:59:12;;;;;;;4.28;1.50;;;18.00;72.30;;;;;;5022724;28;45388;-68
2023/01/05 07:01:39;;;;;;;6.85;2.28;;;18.00;72.40;;;;;;5021906;28;45384;-68
2023/01/05 07:04:05;;;;;;;5.43;1.25;;;18.00;72.30;;;;;;5015310;28;45547;-69
2023/01/05 07:06:33;;;;;;;5.88;1.35;;;18.00;72.20;;;;;;5021937;28;47109;-69
2023/01/05 07:09:00;;;;;;;6.07;1.45;;;18.10;72.40;;;;;;5018245;28;45358;-68
2023/01/05 07:11:27;;;;;;;3.78;1.48;;;18.00;72.30;;;;;;5014286;28;45358;-69
2023/01/05 07:13:55;;;;;;;3.28;1.27;;;18.00;72.40;;;;;;5021620;28;45513;-68
2023/01/05 07:16:22;;;;;;;5.20;1.38;;;17.90;72.60;;;;;;5021687;28;46629;-68
2023/01/05 07:18:49;;;;;;;3.33;1.50;;;17.90;72.60;;;;;;5021717;28;45469;-68
2023/01/05 07:21:16;;;;;;;3.83;1.63;;;17.90;72.70;;;;;;5022270;28;45417;-68
2023/01/05 07:23:42;;;;;;;4.45;1.30;;;17.90;72.80;;;;;;5022013;28;45689;-68
2023/01/05 07:26:09;;;;;;;3.47;1.35;;;17.90;72.80;;;;;;5021334;28;47677;-68
2023/01/05 07:28:38;;;;;;;5.28;1.48;;;17.80;72.70;;;;;;5022617;28;45461;-68
2023/01/05 07:31:07;;;;;;;5.32;1.45;;;17.80;72.80;;;;;;5020356;28;45342;-67
2023/01/05 07:33:34;;;;;;;6.80;1.45;;;17.90;72.60;;;;;;5020989;28;45464;-68
2023/01/05 07:36:01;;;;;;;7.63;1.58;;;17.90;72.60;;;;;;5020634;28;45302;-68
2023/01/05 07:38:27;;;;;;;6.05;1.83;;;17.80;72.40;;;;;;5021332;28;45998;-68
2023/01/05 07:40:57;;;;;;;5.35;1.55;;;17.80;72.20;;;;;;5016367;28;45531;-68
2023/01/05 07:43:24;;;;;;;6.90;1.25;;;17.90;72.30;;;;;;5017552;28;45469;-68
2023/01/05 07:45:51;;;;;;;6.10;1.50;;;17.90;72.10;;;;;;5020405;28;46599;-68
2023/01/05 07:48:19;;;;;;;8.30;1.85;;;17.90;71.90;;;;;;5019178;28;45290;-68
2023/01/05 07:50:46;;;;;;;6.35;2.08;;;17.90;71.70;;;;;;5018192;28;45339;-68
2023/01/05 07:53:12;;;;;;;9.90;2.45;;;17.90;71.60;;;;;;5023365;28;45449;-68
2023/01/05 07:55:39;;;;;;;6.85;1.88;;;17.90;71.40;;;;;;5022483;28;47470;-68
2023/01/05 07:58:06;;;;;;;8.40;2.15;;;17.90;71.30;;;;;;5023427;28;45360;-68
2023/01/05 08:00:32;;;;;;;8.05;2.20;;;17.90;71.20;;;;;;5023062;28;45401;-68
2023/01/05 08:02:59;;;;;;;10.25;2.50;;;17.90;71.10;;;;;;5022517;28;45311;-68
2023/01/05 08:05:32;;;;;;;9.82;1.80;;;17.90;71.10;;;;;;5022024;28;45411;-67
2023/01/05 08:07:59;;;;;;;10.15;1.88;;;17.90;71.30;;;;;;5024483;28;45575;-69
2023/01/05 08:10:29;;;;;;;4.80;1.67;;;17.90;71.40;;;;;;5025502;28;45317;-68
2023/01/05 08:15:44;;;;;;;6.75;1.90;;;17.90;71.50;;;;;;5024339;28;45802;-68
2023/01/05 08:18:11;;;;;;;8.20;1.92;;;17.90;71.70;;;;;;5024310;28;45359;-69
2023/01/05 08:20:40;;;;;;;8.15;2.35;;;17.80;71.60;;;;;;5024865;28;45387;-68
2023/01/05 08:23:06;;;;;;;7.03;2.22;;;17.80;71.70;;;;;;5023976;28;45584;-68
2023/01/05 08:25:34;;;;;;;7.70;2.38;;;17.80;71.80;;;;;;5024061;28;45343;-68
2023/01/05 08:28:00;;;;;;;8.40;2.00;;;17.80;71.80;;;;;;5025078;28;45390;-68
2023/01/05 08:30:27;;;;;;;7.75;1.95;;;17.80;71.70;;;;;;5024273;28;45422;-68
2023/01/05 08:32:54;;;;;;;9.02;1.60;;;17.90;71.90;;;;;;5023001;28;45642;-68
2023/01/05 08:35:21;;;;;;;8.38;1.95;;;17.90;71.90;;;;;;5022371;28;46398;-68
2023/01/05 08:37:49;;;;;;;6.72;1.65;;;17.80;71.90;;;;;;5023580;28;45531;-69
2023/01/05 08:40:16;;;;;;;11.60;2.05;;;17.90;71.90;;;;;;5024608;28;45431;-68
2023/01/05 08:42:44;;;;;;;9.68;2.10;;;17.80;71.90;;;;;;5023272;28;45491;-68
2023/01/05 08:45:11;;;;;;;7.00;1.60;;;17.90;72.10;;;;;;5023409;28;47341;-68
2023/01/05 08:47:38;;;;;;;6.10;1.75;;;17.90;72.10;;;;;;5023679;28;45418;-68
2023/01/05 08:50:06;;;;;;;9.48;2.30;;;17.90;72.10;;;;;;5024247;28;45251;-68
2023/01/05 08:52:32;;;;;;;8.05;2.50;;;17.90;72.00;;;;;;5024016;28;45515;-68
2023/01/05 08:55:00;;;;;;;11.48;1.88;;;17.90;72.00;;;;;;5023181;28;46418;-68
2023/01/05 08:57:27;;;;;;;6.70;1.83;;;18.00;72.10;;;;;;5024466;28;45344;-69
2023/01/05 08:59:54;;;;;;;7.13;2.60;;;18.00;72.10;;;;;;5023128;28;45292;-68
2023/01/05 09:02:21;;;;;;;4.75;1.45;;;17.90;71.90;;;;;;5023347;28;45324;-69
2023/01/05 09:04:48;;;;;;;9.45;1.65;;;18.00;72.00;;;;;;5022849;28;46331;-69
2023/01/05 09:07:15;;;;;;;6.45;1.75;;;18.00;71.90;;;;;;5023036;28;45454;-68
2023/01/05 09:09:41;;;;;;;4.75;1.63;;;18.00;71.90;;;;;;5024368;28;45338;-68
2023/01/05 09:12:10;;;;;;;6.38;1.73;;;18.00;72.90;;;;;;5022134;28;45599;-68
2023/01/05 09:14:37;;;;;;;6.05;1.92;;;18.00;71.90;;;;;;5023161;28;46268;-68
2023/01/05 09:17:04;;;;;;;9.35;1.80;;;18.00;72.00;;;;;;5023232;28;45377;-68
2023/01/05 09:19:31;;;;;;;11.07;2.28;;;18.00;72.30;;;;;;5023531;28;45559;-68
2023/01/05 09:21:58;;;;;;;8.50;1.95;;;18.00;72.40;;;;;;5024150;28;45353;-69
2023/01/05 09:24:25;;;;;;;14.43;3.10;;;18.10;72.90;;;;;;5022248;28;45497;-69
2023/01/05 09:26:52;;;;;;;8.73;2.20;;;18.10;72.90;;;;;;5021598;28;45577;-67
2023/01/05 09:29:20;;;;;;;8.52;2.00;;;18.00;72.70;;;;;;5022414;28;45260;-68
2023/01/05 09:31:47;;;;;;;5.43;1.73;;;18.00;72.60;;;;;;5019019;28;45396;-68
2023/01/05 09:34:13;;;;;;;9.13;1.83;;;18.00;72.60;;;;;;5021251;28;45395;-68
2023/01/05 09:36:40;;;;;;;8.05;1.95;;;18.00;72.60;;;;;;5021175;28;45421;-68
2023/01/05 09:39:07;;;;;;;8.05;1.75;;;17.90;72.60;;;;;;5022192;28;45624;-67
2023/01/05 09:41:38;;;;;;;8.07;1.70;;;17.90;72.70;;;;;;5023137;28;45396;-68
2023/01/05 09:44:11;;;;;;;8.98;1.58;;;18.00;72.60;;;;;;5022937;28;46272;-69
2023/01/05 09:46:43;;;;;;;6.47;1.73;;;18.00;72.40;;;;;;5023249;28;45235;-68
2023/01/05 09:49:14;;;;;;;8.63;2.08;;;18.00;72.30;;;;;;5023784;28;45370;-68
2023/01/05 09:51:42;;;;;;;6.82;1.50;;;18.00;72.20;;;;;;5022677;28;45649;-68
2023/01/05 09:54:15;;;;;;;9.25;1.98;;;18.00;72.10;;;;;;5022622;28;45330;-68
2023/01/05 09:56:45;;;;;;;8.43;2.17;;;18.00;72.20;;;;;;5023563;28;45345;-69
2023/01/05 09:59:17;;;;;;;6.43;1.90;;;18.00;72.10;;;;;;5023723;28;45432;-68
2023/01/05 10:01:48;;;;;;;7.10;2.00;;;18.00;72.10;;;;;;5022312;28;45457;-68
2023/01/05 10:04:16;;;;;;;5.43;1.58;;;18.00;71.90;;;;;;5002470;28;46543;-67
2023/01/05 10:06:46;;;;;;;8.18;2.03;;;18.10;72.10;;;;;;5006795;28;45551;-68
2023/01/05 10:09:17;;;;;;;8.07;1.88;;;18.00;71.90;;;;;;5022337;28;45441;-68
2023/01/05 10:14:39;;;;;;;7.20;1.60;;;18.00;72.10;;;;;;5022428;28;45488;-68
2023/01/05 10:17:14;;;;;;;8.27;1.92;;;18.00;72.20;;;;;;5022789;28;45395;-68
2023/01/05 10:19:41;;;;;;;8.77;2.05;;;17.90;72.40;;;;;;5015321;28;45448;-68
2023/01/05 10:22:24;;;;;;;6.97;1.75;;;17.90;72.60;;;;;;5021715;28;45334;-68
2023/01/05 10:24:57;;;;;;;8.18;2.10;;;17.90;72.60;;;;;;5020017;28;48324;-68
2023/01/05 10:27:28;;;;;;;9.18;2.03;;;17.90;72.70;;;;;;5021499;28;45425;-68
2023/01/05 10:30:03;;;;;;;6.85;1.73;;;17.90;72.60;;;;;;5019694;28;45565;-68
2023/01/05 10:32:39;;;;;;;5.20;1.83;;;17.90;72.60;;;;;;5021313;28;45387;-68
2023/01/05 10:35:18;;;;;;;6.93;1.77;;;17.90;72.60;;;;;;5016353;28;46558;-68
2023/01/05 10:37:59;;;;;;;5.18;1.48;;;17.90;72.80;;;;;;5021353;28;45441;-67
2023/01/05 10:40:37;;;;;;;4.85;2.00;;;17.90;73.00;;;;;;5020693;28;45469;-67
2023/01/05 10:43:24;;;;;;;5.97;2.08;;;17.90;72.70;;;;;;5022746;28;45670;-67
2023/01/05 10:45:51;;;;;;;7.70;1.58;;;17.90;72.70;;;;;;5019418;28;47334;-67
2023/01/05 10:48:27;;;;;;;7.47;1.60;;;17.90;72.70;;;;;;5002485;28;45421;-68
2023/01/05 10:50:55;;;;;;;9.00;2.35;;;17.90;72.60;;;;;;5003385;28;45219;-68
2023/01/05 10:53:26;;;;;;;5.72;1.55;;;17.90;72.60;;;;;;5022475;28;45242;-68
2023/01/05 10:56:00;;;;;;;9.00;1.90;;;17.90;72.50;;;;;;5021996;28;47937;-68
2023/01/05 10:58:28;;;;;;;4.90;1.58;;;17.90;72.50;;;;;;5022311;28;45429;-67
2023/01/05 11:00:57;;;;;;;7.30;1.67;;;17.90;72.40;;;;;;5022396;28;45269;-67
2023/01/05 11:03:35;;;;;;;7.63;2.08;;;18.00;72.40;;;;;;5021625;28;45283;-68
2023/01/05 11:06:03;;;;;;;9.70;2.30;;;18.00;72.90;;;;;;5021996;28;45613;-68
2023/01/05 11:08:31;;;;;;;33.58;3.38;;;18.10;74.90;;;;;;5021975;28;45351;-69
2023/01/05 11:10:59;;;;;;;11.13;2.40;;;18.20;75.90;;;;;;5022466;28;45262;-69
2023/01/05 11:13:34;;;;;;;10.63;2.25;;;18.10;74.70;;;;;;5022191;28;45492;-68
2023/01/05 11:16:08;;;;;;;6.60;1.55;;;18.00;74.20;;;;;;5020335;28;46087;-69
2023/01/05 11:18:46;;;;;;;13.18;2.50;;;18.00;74.60;;;;;;5023142;28;45448;-69
2023/01/05 11:21:15;;;;;;;6.80;1.70;;;17.90;75.00;;;;;;5022595;28;45332;-68
2023/01/05 11:23:43;;;;;;;6.53;1.80;;;17.90;75.50;;;;;;5021510;28;45506;-68
2023/01/05 11:26:23;;;;;;;6.70;2.00;;;17.90;76.40;;;;;;5028362;28;46357;-69
2023/01/05 11:29:09;;;;;;;6.00;1.88;;;17.90;76.40;;;;;;5028715;28;45307;-69
2023/01/05 11:31:41;;;;;;;13.10;1.60;;;17.90;76.40;;;;;;5028967;28;45275;-69
2023/01/05 11:34:29;;;;;;;7.20;2.05;;;17.90;76.40;;;;;;5028446;28;45393;-69
2023/01/05 11:36:57;;;;;;;6.13;1.95;;;17.80;76.40;;;;;;5028025;28;45443;-68
2023/01/05 11:39:30;;;;;;;9.60;2.47;;;17.90;76.80;;;;;;5026848;28;45410;-69
2023/01/05 11:42:16;;;;;;;6.57;1.85;;;17.80;78.00;;;;;;5023023;28;45327;-68
2023/01/05 11:44:46;;;;;;;5.78;1.70;;;17.80;77.50;;;;;;5028519;28;45361;-68
2023/01/05 11:47:22;;;;;;;6.40;1.77;;;17.80;77.30;;;;;;5027956;28;45338;-69
2023/01/05 11:49:57;;;;;;;7.30;1.50;;;17.80;77.60;;;;;;5026099;28;45387;-69
2023/01/05 11:52:26;;;;;;;6.28;1.75;;;17.80;77.60;;;;;;5024547;28;45386;-69
2023/01/05 11:54:53;;;;;;;6.50;1.85;;;17.80;77.80;;;;;;5028370;28;45549;-68
2023/01/05 11:57:22;;;;;;;6.72;1.80;;;17.90;78.00;;;;;;5028147;28;46589;-70
2023/01/05 11:59:51;;;;;;;7.30;1.67;;;17.80;78.30;;;;;;5027800;28;45279;-69
2023/01/05 12:02:50;;;;;;;7.38;1.90;;;17.90;78.30;;;;;;5028512;28;45486;-69
2023/01/05 12:05:30;;;;;;;4.93;1.70;;;17.90;78.90;;;;;;5022395;28;45329;-69
2023/01/05 12:08:01;;;;;;;6.95;1.92;;;17.80;79.20;;;;;;5022181;28;46563;-69
2023/01/05 12:10:47;;;;;;;5.82;1.65;;;17.80;79.60;;;;;;5020165;28;45474;-70
2023/01/05 12:13:39;;;;;;;7.60;1.80;;;17.80;79.60;;;;;;5028114;28;45208;-68
2023/01/05 12:16:23;;;;;;;7.70;1.90;;;17.80;79.60;;;;;;5023868;28;45619;-68
2023/01/05 12:19:15;;;;;;;8.20;1.98;;;17.80;79.90;;;;;;5028168;28;46859;-68
2023/01/05 12:21:50;;;;;;;10.32;1.95;;;17.80;79.20;;;;;;5028172;28;45421;-68
2023/01/05 12:24:42;;;;;;;8.65;2.33;;;17.80;78.70;;;;;;5026838;28;45267;-69
2023/01/05 12:27:21;;;;;;;10.30;1.58;;;17.80;78.60;;;;;;5028598;28;45492;-70
2023/01/05 12:30:15;;;;;;;7.95;2.20;;;17.80;79.10;;;;;;5027955;28;46288;-69
2023/01/05 12:32:57;;;;;;;4.78;1.55;;;17.80;79.10;;;;;;5028095;28;45349;-68
2023/01/05 12:35:55;;;;;;;5.30;1.60;;;17.80;79.10;;;;;;5026890;28;45531;-69
2023/01/05 12:38:36;;;;;;;9.10;2.22;;;17.80;79.10;;;;;;5008824;28;45422;-68
2023/01/05 12:41:37;;;;;;;8.25;1.65;;;17.80;79.30;;;;;;5019439;28;45436;-69
2023/01/05 12:44:31;;;;;;;7.90;1.92;;;17.80;79.40;;;;;;5023652;28;45428;-68
2023/01/05 12:47:12;;;;;;;10.07;1.98;;;17.80;80.10;;;;;;5022585;28;45630;-69
2023/01/05 12:49:42;;;;;;;7.78;2.05;;;17.80;80.30;;;;;;5029280;28;45439;-69
2023/01/05 12:52:14;;;;;;;7.40;2.03;;;17.80;81.00;;;;;;5024677;28;45597;-69
2023/01/05 12:54:47;;;;;;;6.45;1.73;;;17.90;81.20;;;;;;5024087;28;45199;-69
2023/01/05 12:57:17;;;;;;;7.40;1.83;;;17.90;81.40;;;;;;5021815;28;45300;-69
2023/01/05 12:59:51;;;;;;;7.75;1.70;;;17.90;81.30;;;;;;5024731;28;45411;-69
2023/01/05 13:02:28;;;;;;;6.22;2.10;;;17.90;81.30;;;;;;5021778;28;45294;-69
2023/01/05 13:05:01;;;;;;;6.20;1.70;;;17.90;81.50;;;;;;5023872;28;45254;-69
2023/01/05 13:07:34;;;;;;;5.35;1.42;;;17.90;81.70;;;;;;5024298;28;45467;-69
2023/01/05 13:10:07;;;;;;;6.78;1.65;;;17.90;81.90;;;;;;5024182;28;45247;-69
2023/01/05 13:12:35;;;;;;;5.03;1.67;;;17.90;81.70;;;;;;5024689;28;47561;-69
2023/01/05 13:15:07;;;;;;;10.55;1.80;;;18.00;81.60;;;;;;5024211;28;45239;-69
2023/01/05 13:17:36;;;;;;;5.90;1.70;;;18.00;82.10;;;;;;5024257;28;45281;-69
2023/01/05 13:20:12;;;;;;;7.80;1.48;;;17.90;82.00;;;;;;5024786;28;45275;-69
2023/01/05 13:22:42;;;;;;;6.45;1.70;;;17.90;82.10;;;;;;5023940;28;45447;-69
2023/01/05 13:25:18;;;;;;;5.40;1.65;;;17.90;82.20;;;;;;5023740;28;46253;-69
2023/01/05 13:27:44;;;;;;;5.95;1.70;;;17.90;82.40;;;;;;5023759;28;45485;-70
2023/01/05 13:30:21;;;;;;;6.85;1.77;;;17.90;82.40;;;;;;5024259;28;45410;-69
2023/01/05 13:33:15;;;;;;;4.40;1.40;;;17.90;82.40;;;;;;5004137;28;45358;-69
2023/01/05 13:35:56;;;;;;;5.45;1.58;;;17.90;82.20;;;;;;5004133;28;45355;-70
2023/01/05 13:38:45;;;;;;;4.70;1.63;;;17.90;82.50;;;;;;5004047;28;45398;-70
2023/01/05 13:41:43;;;;;;;4.97;1.60;;;17.90;82.40;;;;;;5007093;28;45564;-69